createdAt,value
2022-09-12T00:01:18.209Z,79.37
2022-09-12T00:03:48.929Z,79.24
2022-09-12T00:06:22.967Z,79.10
2022-09-12T00:08:50.162Z,79.55
2022-09-12T00:11:16.773Z,80.01
2022-09-12T00:13:43.912Z,80.17
2022-09-12T00:16:22.100Z,80.06
2022-09-12T00:18:48.835Z,80.20
2022-09-12T00:21:17.641Z,80.38
2022-09-12T00:23:44.909Z,80.03
2022-09-12T00:26:12.087Z,80.42
2022-09-12T00:28:39.783Z,79.84
2022-09-12T00:31:09.112Z,80.05
2022-09-12T00:33:36.307Z,79.84
2022-09-12T00:36:09.583Z,79.13
2022-09-12T00:38:38.542Z,78.97
2022-09-12T00:41:06.432Z,79.28
2022-09-12T00:43:39.693Z,79.52
2022-09-12T00:46:26.356Z,79.75
2022-09-12T00:49:15.780Z,79.63
2022-09-12T00:52:14.643Z,79.86
2022-09-12T00:54:58.124Z,80.07
2022-09-12T00:57:33.655Z,79.98
2022-09-12T01:00:10.428Z,80.71
2022-09-12T01:02:36.786Z,80.83
2022-09-12T01:05:03.523Z,80.68
2022-09-12T01:07:30.338Z,80.50
2022-09-12T01:09:56.892Z,80.66
2022-09-12T01:12:24.081Z,80.38
2022-09-12T01:14:50.472Z,80.01
2022-09-12T01:17:17.101Z,80.59
2022-09-12T01:19:49.842Z,80.21
2022-09-12T01:22:47.212Z,80.28
2022-09-12T01:25:40.479Z,80.18
2022-09-12T01:28:38.516Z,79.77
2022-09-12T01:31:19.227Z,80.10
2022-09-12T01:33:57.710Z,80.44
2022-09-12T01:36:38.335Z,80.70
2022-09-12T01:39:26.712Z,80.67
2022-09-12T01:42:10.316Z,80.73
2022-09-12T01:44:36.740Z,80.71
2022-09-12T01:47:10.090Z,80.94
2022-09-12T01:49:52.012Z,81.07
2022-09-12T01:52:25.568Z,80.41
2022-09-12T01:55:01.335Z,80.61
2022-09-12T01:57:53.516Z,80.57
2022-09-12T02:00:20.613Z,80.71
2022-09-12T02:02:54.360Z,80.58
2022-09-12T02:05:36.276Z,80.60
2022-09-12T02:08:18.448Z,79.97
2022-09-12T02:10:55.969Z,80.29
2022-09-12T02:13:29.765Z,80.37
2022-09-12T02:16:03.682Z,80.48
2022-09-12T02:18:34.154Z,79.95
2022-09-12T02:21:02.078Z,79.92
2022-09-12T02:23:33.065Z,79.94
2022-09-12T02:26:17.514Z,80.60
2022-09-12T02:28:44.264Z,80.75
2022-09-12T02:31:42.983Z,80.69
2022-09-12T02:34:15.660Z,80.68
2022-09-12T02:37:03.059Z,80.34
2022-09-12T02:39:29.509Z,80.79
2022-09-12T02:41:59.536Z,81.05
2022-09-12T02:44:27.905Z,80.65
2022-09-12T02:46:59.418Z,80.78
2022-09-12T02:49:26.155Z,81.05
2022-09-12T02:51:52.527Z,80.71
2022-09-12T02:54:19.924Z,80.66
2022-09-12T02:56:46.733Z,80.38
2022-09-12T02:59:18.301Z,80.28
2022-09-12T03:02:03.748Z,80.57
2022-09-12T03:05:12.936Z,80.88
2022-09-12T03:08:03.978Z,80.93
2022-09-12T03:10:42.688Z,81.03
2022-09-12T03:13:24.705Z,81.20
2022-09-12T03:15:57.154Z,80.79
2022-09-12T03:18:54.573Z,80.61
2022-09-12T03:21:47.002Z,80.77
2022-09-12T03:24:23.837Z,80.70
2022-09-12T03:26:57.907Z,81.06
2022-09-12T03:29:26.397Z,81.27
2022-09-12T03:31:55.566Z,81.61
2022-09-12T03:34:24.132Z,81.30
2022-09-12T03:36:51.446Z,81.47
2022-09-12T03:39:18.423Z,81.24
2022-09-12T03:41:44.775Z,81.05
2022-09-12T03:44:11.140Z,80.96
2022-09-12T03:46:37.688Z,80.74
2022-09-12T03:49:04.262Z,80.86
2022-09-12T03:51:31.182Z,81.08
2022-09-12T03:53:57.714Z,80.96
2022-09-12T03:56:24.103Z,81.17
2022-09-12T03:58:50.609Z,81.40
2022-09-12T04:01:19.469Z,81.41
2022-09-12T04:03:48.698Z,81.27
2022-09-12T04:06:17.217Z,81.41
2022-09-12T04:08:44.552Z,81.06
2022-09-12T04:11:13.348Z,81.19
2022-09-12T04:13:41.754Z,81.16
2022-09-12T04:16:09.039Z,81.10
2022-09-12T04:18:36.200Z,81.25
2022-09-12T04:21:08.164Z,81.20
2022-09-12T04:23:35.213Z,81.31
2022-09-12T04:26:03.340Z,81.37
2022-09-12T04:28:30.138Z,81.76
2022-09-12T04:31:01.234Z,81.82
2022-09-12T04:33:27.807Z,82.07
2022-09-12T04:35:54.146Z,81.40
2022-09-12T04:38:20.694Z,81.85
2022-09-12T04:40:47.801Z,81.65
2022-09-12T04:43:14.734Z,82.15
2022-09-12T04:45:41.471Z,81.73
2022-09-12T04:48:07.877Z,81.89
2022-09-12T04:50:34.409Z,82.08
2022-09-12T04:53:03.848Z,82.32
2022-09-12T04:55:30.392Z,82.29
2022-09-12T04:57:56.740Z,82.44
2022-09-12T05:00:24.296Z,82.69
2022-09-12T05:02:50.644Z,82.43
2022-09-12T05:05:17.602Z,82.43
2022-09-12T05:07:44.072Z,82.38
2022-09-12T05:10:10.689Z,82.36
2022-09-12T05:12:37.296Z,82.23
2022-09-12T05:15:04.655Z,81.95
2022-09-12T05:17:31.020Z,81.75
2022-09-12T05:19:57.658Z,81.96
2022-09-12T05:22:24.009Z,81.68
2022-09-12T05:24:50.832Z,81.82
2022-09-12T05:27:17.510Z,81.82
2022-09-12T05:29:43.929Z,81.95
2022-09-12T05:32:10.455Z,81.87
2022-09-12T05:34:37.907Z,82.10
2022-09-12T05:37:04.520Z,82.49
2022-09-12T05:39:30.851Z,82.24
2022-09-12T05:41:57.208Z,82.12
2022-09-12T05:44:23.740Z,82.29
2022-09-12T05:46:51.453Z,82.27
2022-09-12T05:49:17.797Z,82.43
2022-09-12T05:51:45.630Z,82.51
2022-09-12T05:54:15.789Z,82.46
2022-09-12T05:56:44.153Z,81.89
2022-09-12T05:59:12.323Z,82.11
2022-09-12T06:01:39.327Z,81.82
2022-09-12T06:04:06.776Z,81.70
2022-09-12T06:06:37.499Z,82.16
2022-09-12T06:09:05.590Z,82.13
2022-09-12T06:11:34.054Z,82.17
2022-09-12T06:14:01.201Z,81.91
2022-09-12T06:16:30.381Z,81.77
2022-09-12T06:18:59.687Z,81.63
2022-09-12T06:21:27.312Z,81.79
2022-09-12T06:23:55.277Z,81.75
2022-09-12T06:26:23.518Z,81.68
2022-09-12T06:28:50.461Z,81.68
2022-09-12T06:31:19.533Z,82.02
2022-09-12T06:33:49.865Z,82.05
2022-09-12T06:36:22.592Z,81.26
2022-09-12T06:38:54.530Z,81.37
2022-09-12T06:41:21.043Z,81.13
2022-09-12T06:43:47.404Z,80.22
2022-09-12T06:46:13.806Z,80.02
2022-09-12T06:48:42.138Z,80.22
2022-09-12T06:51:14.681Z,79.95
2022-09-12T06:53:42.117Z,80.04
2022-09-12T06:56:14.664Z,80.31
2022-09-12T06:58:42.830Z,80.66
2022-09-12T07:01:10.755Z,78.95
2022-09-12T07:03:38.315Z,67.73
2022-09-12T07:06:10.949Z,58.37
2022-09-12T07:08:38.425Z,52.74
2022-09-12T07:11:12.326Z,49.30
2022-09-12T07:13:45.416Z,47.05
2022-09-12T07:16:18.718Z,43.63
2022-09-12T07:18:59.585Z,41.92
2022-09-12T07:21:26.756Z,40.83
2022-09-12T07:23:55.255Z,40.46
2022-09-12T07:26:21.807Z,42.82
2022-09-12T07:28:53.740Z,44.91
2022-09-12T07:31:23.004Z,44.13
2022-09-12T07:33:54.356Z,40.47
2022-09-12T07:36:23.750Z,38.44
2022-09-12T07:38:57.382Z,38.38
2022-09-12T07:41:26.596Z,37.62
2022-09-12T07:43:58.176Z,37.53
2022-09-12T07:46:26.534Z,37.44
2022-09-12T07:48:55.386Z,37.54
2022-09-12T07:51:22.906Z,37.10
2022-09-12T07:53:49.958Z,35.49
2022-09-12T07:56:16.678Z,36.73
2022-09-12T07:58:44.047Z,37.66
2022-09-12T08:01:19.552Z,38.97
2022-09-12T08:03:53.295Z,39.07
2022-09-12T08:06:24.087Z,37.38
2022-09-12T08:08:52.147Z,37.07
2022-09-12T08:11:23.545Z,36.71
2022-09-12T08:13:55.456Z,36.01
2022-09-12T08:16:24.921Z,36.43
2022-09-12T08:18:51.685Z,35.98
2022-09-12T08:21:21.280Z,35.71
2022-09-12T08:23:51.626Z,36.60
2022-09-12T08:26:21.314Z,37.15
2022-09-12T08:28:48.262Z,35.34
2022-09-12T08:31:20.374Z,36.17
2022-09-12T08:33:57.388Z,37.50
2022-09-12T08:36:27.176Z,38.26
2022-09-12T08:39:16.264Z,38.08
2022-09-12T08:41:49.347Z,38.14
2022-09-12T08:44:36.049Z,36.70
2022-09-12T08:47:25.405Z,38.43
2022-09-12T08:50:10.043Z,39.67
2022-09-12T08:52:49.589Z,40.43
2022-09-12T08:55:35.281Z,39.94
2022-09-12T08:58:14.665Z,38.35
2022-09-12T09:00:48.589Z,40.17
2022-09-12T09:03:36.857Z,39.77
2022-09-12T09:06:27.068Z,40.63
2022-09-12T09:09:11.916Z,40.03
2022-09-12T09:11:55.891Z,39.64
2022-09-12T09:14:56.480Z,39.01
2022-09-12T09:17:38.731Z,39.43
2022-09-12T09:20:23.176Z,39.10
2022-09-12T09:22:55.814Z,39.95
2022-09-12T09:25:29.299Z,39.51
2022-09-12T09:28:03.916Z,40.56
2022-09-12T09:30:30.789Z,40.06
2022-09-12T09:33:00.720Z,39.60
2022-09-12T09:35:44.976Z,41.29
2022-09-12T09:38:51.119Z,42.54
2022-09-12T09:41:33.311Z,41.05
2022-09-12T09:44:00.982Z,40.83
2022-09-12T09:46:28.078Z,40.26
2022-09-12T09:48:58.709Z,40.80
2022-09-12T09:51:33.930Z,41.93
2022-09-12T09:54:05.785Z,39.29
2022-09-12T09:56:37.828Z,39.88
2022-09-12T09:59:16.589Z,40.10
2022-09-12T10:01:55.491Z,40.85
2022-09-12T10:04:24.576Z,40.03
2022-09-12T10:06:53.095Z,40.54
2022-09-12T10:09:23.702Z,40.85
2022-09-12T10:11:51.492Z,40.31
2022-09-12T10:14:32.276Z,40.97
2022-09-12T10:16:59.708Z,40.21
2022-09-12T10:19:42.744Z,41.48
2022-09-12T10:22:17.671Z,41.32
2022-09-12T10:24:50.406Z,41.86
2022-09-12T10:27:20.650Z,43.75
2022-09-12T10:30:04.631Z,45.38
2022-09-12T10:32:38.348Z,47.12
2022-09-12T10:35:25.097Z,46.46
2022-09-12T10:37:58.429Z,46.00
2022-09-12T10:40:35.130Z,48.31
2022-09-12T10:43:03.129Z,49.28
2022-09-12T10:45:30.884Z,49.42
2022-09-12T10:48:07.315Z,49.84
2022-09-12T10:50:41.954Z,50.40
2022-09-12T10:53:22.278Z,49.72
2022-09-12T10:56:11.845Z,50.45
2022-09-12T10:58:46.549Z,50.02
2022-09-12T11:01:31.988Z,50.17
2022-09-12T11:04:23.288Z,48.96
2022-09-12T11:07:13.804Z,47.81
2022-09-12T11:10:01.379Z,47.69
2022-09-12T11:12:56.110Z,46.99
2022-09-12T11:15:28.528Z,46.68
2022-09-12T11:18:05.036Z,45.98
2022-09-12T11:21:03.376Z,45.45
2022-09-12T11:23:44.656Z,46.48
2022-09-12T11:26:14.146Z,47.91
2022-09-12T11:28:51.244Z,49.16
2022-09-12T11:31:49.817Z,44.99
2022-09-12T11:34:32.184Z,44.78
2022-09-12T11:37:22.221Z,44.70
2022-09-12T11:39:55.571Z,44.42
2022-09-12T11:42:29.011Z,45.82
2022-09-12T11:45:12.658Z,43.33
2022-09-12T11:47:41.005Z,44.39
2022-09-12T11:50:20.281Z,43.45
2022-09-12T11:52:46.847Z,45.76
2022-09-12T11:55:19.498Z,45.24
2022-09-12T11:57:56.994Z,46.72
2022-09-12T12:00:37.064Z,45.73
2022-09-12T12:03:13.622Z,45.67
2022-09-12T12:05:58.560Z,45.93
2022-09-12T12:08:26.447Z,45.82
2022-09-12T12:10:59.608Z,48.04
2022-09-12T12:13:41.135Z,47.15
2022-09-12T12:16:24.936Z,47.06
2022-09-12T12:19:06.470Z,48.62
2022-09-12T12:21:45.456Z,47.80
2022-09-12T12:24:21.254Z,46.89
2022-09-12T12:26:51.409Z,46.37
2022-09-12T12:29:17.854Z,45.56
2022-09-12T12:31:59.279Z,45.77
2022-09-12T12:34:38.894Z,46.57
2022-09-12T12:37:20.923Z,46.14
2022-09-12T12:39:50.979Z,45.50
2022-09-12T12:42:32.995Z,48.19
2022-09-12T12:45:00.968Z,46.26
2022-09-12T12:47:29.108Z,44.60
2022-09-12T12:49:59.824Z,46.60
2022-09-12T12:52:33.035Z,45.07
2022-09-12T12:55:04.388Z,44.54
2022-09-12T12:57:52.928Z,44.83
2022-09-12T13:00:25.156Z,44.64
2022-09-12T13:03:09.443Z,44.63
2022-09-12T13:05:49.067Z,45.20
2022-09-12T13:08:18.489Z,46.67
2022-09-12T13:10:54.511Z,45.33
2022-09-12T13:13:47.373Z,44.96
2022-09-12T13:16:29.987Z,45.78
2022-09-12T13:19:01.569Z,43.74
2022-09-12T13:21:28.169Z,44.34
2022-09-12T13:24:12.855Z,44.84
2022-09-12T13:26:45.346Z,44.70
2022-09-12T13:29:20.377Z,45.78
2022-09-12T13:31:50.856Z,44.94
2022-09-12T13:34:44.121Z,44.61
2022-09-12T13:37:29.451Z,44.60
2022-09-12T13:40:30.513Z,45.58
2022-09-12T13:43:09.905Z,45.49
2022-09-12T13:45:39.403Z,45.54
2022-09-12T13:48:07.991Z,46.34
2022-09-12T13:50:41.664Z,45.81
2022-09-12T13:53:15.944Z,45.86
2022-09-12T13:55:50.068Z,46.23
2022-09-12T13:58:31.391Z,46.00
2022-09-12T14:01:09.798Z,46.23
2022-09-12T14:04:07.720Z,46.47
2022-09-12T14:06:52.994Z,45.04
2022-09-12T14:09:25.985Z,44.97
2022-09-12T14:11:53.129Z,45.18
2022-09-12T14:14:28.343Z,44.46
2022-09-12T14:16:54.919Z,44.34
2022-09-12T14:19:25.952Z,44.35
2022-09-12T14:21:53.855Z,45.45
2022-09-12T14:24:24.067Z,44.80
2022-09-12T14:26:56.626Z,44.34
2022-09-12T14:29:25.274Z,45.11
2022-09-12T14:32:03.199Z,46.34
2022-09-12T14:34:30.258Z,45.86
2022-09-12T14:36:57.689Z,46.58
2022-09-12T14:39:33.297Z,47.84
2022-09-12T14:42:07.134Z,45.65
2022-09-12T14:44:36.664Z,44.72
2022-09-12T14:47:24.181Z,45.37
2022-09-12T14:49:54.530Z,45.27
2022-09-12T14:52:33.396Z,46.05
2022-09-12T14:55:01.611Z,46.12
2022-09-12T14:57:28.060Z,45.70
2022-09-12T15:00:06.105Z,46.14
2022-09-12T15:02:34.303Z,47.12
2022-09-12T15:05:03.864Z,47.48
2022-09-12T15:07:35.985Z,47.55
2022-09-12T15:10:27.393Z,46.59
2022-09-12T15:13:05.995Z,47.21
2022-09-12T15:15:36.786Z,46.87
2022-09-12T15:18:06.601Z,46.31
2022-09-12T15:20:36.053Z,46.67
2022-09-12T15:23:02.639Z,47.04
2022-09-12T15:25:29.144Z,47.13
2022-09-12T15:27:56.423Z,47.00
2022-09-12T15:30:22.935Z,47.99
2022-09-12T15:32:49.469Z,47.63
2022-09-12T15:35:23.071Z,47.69
2022-09-12T15:37:50.180Z,47.09
2022-09-12T15:40:17.428Z,48.05
2022-09-12T15:42:44.149Z,47.21
2022-09-12T15:45:21.766Z,48.03
2022-09-12T15:47:48.284Z,48.05
2022-09-12T15:50:15.367Z,48.60
2022-09-12T15:52:42.420Z,48.49
2022-09-12T15:55:32.212Z,48.68
2022-09-12T15:58:06.324Z,48.01
2022-09-12T16:00:33.568Z,45.77
2022-09-12T16:02:59.975Z,46.19
2022-09-12T16:05:26.860Z,46.16
2022-09-12T16:07:54.649Z,46.77
2022-09-12T16:10:27.443Z,46.91
2022-09-12T16:12:53.804Z,46.44
2022-09-12T16:15:23.160Z,46.42
2022-09-12T16:17:50.466Z,47.71
2022-09-12T16:20:17.716Z,47.31
2022-09-12T16:22:44.116Z,47.74
2022-09-12T16:25:10.755Z,46.81
2022-09-12T16:27:37.645Z,47.52
2022-09-12T16:30:06.214Z,46.70
2022-09-12T16:32:33.572Z,48.03
2022-09-12T16:35:00.561Z,47.08
2022-09-12T16:37:26.976Z,47.46
2022-09-12T16:39:53.498Z,46.61
2022-09-12T16:42:19.980Z,47.58
2022-09-12T16:44:47.083Z,48.12
2022-09-12T16:47:14.244Z,49.25
2022-09-12T16:49:40.847Z,49.25
2022-09-12T16:52:07.856Z,49.69
2022-09-12T16:54:34.447Z,49.19
2022-09-12T16:57:01.003Z,50.09
2022-09-12T16:59:27.407Z,51.04
2022-09-12T17:01:53.851Z,51.32
2022-09-12T17:04:23.412Z,51.75
2022-09-12T17:06:50.284Z,51.26
2022-09-12T17:09:18.534Z,53.46
2022-09-12T17:11:47.871Z,52.88
2022-09-12T17:14:14.308Z,52.40
2022-09-12T17:16:46.890Z,52.84
2022-09-12T17:19:26.697Z,53.07
2022-09-12T17:21:54.015Z,54.37
2022-09-12T17:24:21.008Z,54.47
2022-09-12T17:26:47.683Z,54.67
2022-09-12T17:29:14.365Z,54.92
2022-09-12T17:31:41.901Z,55.42
2022-09-12T17:34:09.103Z,56.85
2022-09-12T17:36:35.672Z,57.68
2022-09-12T17:39:04.070Z,57.85
2022-09-12T17:41:34.296Z,58.71
2022-09-12T17:44:02.902Z,59.24
2022-09-12T17:46:39.000Z,59.71
2022-09-12T17:49:10.696Z,59.91
2022-09-12T17:51:37.388Z,60.49
2022-09-12T17:54:11.945Z,60.80
2022-09-12T17:56:39.525Z,61.04
2022-09-12T17:59:07.738Z,61.18
2022-09-12T18:01:53.555Z,61.33
2022-09-12T18:04:20.313Z,61.47
2022-09-12T18:06:50.289Z,62.18
2022-09-12T18:09:22.126Z,62.61
2022-09-12T18:11:49.540Z,63.25
2022-09-12T18:14:17.220Z,63.36
2022-09-12T18:16:44.437Z,63.66
2022-09-12T18:19:11.317Z,64.02
2022-09-12T18:21:38.108Z,64.21
2022-09-12T18:24:05.030Z,64.74
2022-09-12T18:26:32.239Z,64.79
2022-09-12T18:28:58.981Z,65.03
2022-09-12T18:31:29.039Z,65.21
2022-09-12T18:33:55.735Z,65.04
2022-09-12T18:36:22.617Z,65.05
2022-09-12T18:38:49.477Z,65.38
2022-09-12T18:41:18.549Z,65.53
2022-09-12T18:43:45.472Z,65.98
2022-09-12T18:46:17.561Z,65.78
2022-09-12T18:48:45.377Z,66.28
2022-09-12T18:51:19.928Z,66.32
2022-09-12T18:54:06.861Z,66.20
2022-09-12T18:56:37.528Z,67.00
2022-09-12T18:59:06.261Z,67.20
2022-09-12T19:01:35.489Z,67.52
2022-09-12T19:04:04.847Z,67.62
2022-09-12T19:06:34.427Z,68.18
2022-09-12T19:09:06.699Z,68.66
2022-09-12T19:11:34.364Z,68.05
2022-09-12T19:14:00.995Z,68.61
2022-09-12T19:16:29.104Z,68.26
2022-09-12T19:18:56.836Z,68.98
2022-09-12T19:21:26.026Z,69.74
2022-09-12T19:23:55.801Z,69.80
2022-09-12T19:26:22.379Z,69.64
2022-09-12T19:28:48.847Z,69.75
2022-09-12T19:31:19.130Z,69.93
2022-09-12T19:33:46.573Z,69.90
2022-09-12T19:36:34.083Z,69.89
2022-09-12T19:39:01.530Z,69.86
2022-09-12T19:41:28.068Z,70.46
2022-09-12T19:43:57.701Z,70.69
2022-09-12T19:46:26.058Z,70.27
2022-09-12T19:48:53.035Z,70.55
2022-09-12T19:51:21.178Z,70.68
2022-09-12T19:53:47.766Z,70.82
2022-09-12T19:56:14.625Z,71.58
2022-09-12T19:58:43.463Z,71.52
2022-09-12T20:01:12.394Z,70.92
2022-09-12T20:03:39.556Z,71.11
2022-09-12T20:06:09.337Z,71.67
2022-09-12T20:08:40.425Z,71.61
2022-09-12T20:11:07.561Z,71.62
2022-09-12T20:13:34.499Z,71.92
2022-09-12T20:16:08.460Z,71.48
2022-09-12T20:18:35.625Z,71.74
2022-09-12T20:21:14.978Z,71.52
2022-09-12T20:23:41.455Z,70.90
2022-09-12T20:26:09.100Z,71.20
2022-09-12T20:28:39.820Z,71.59
2022-09-12T20:31:10.506Z,71.80
2022-09-12T20:33:37.311Z,71.71
2022-09-12T20:36:07.213Z,72.13
2022-09-12T20:38:34.101Z,72.32
2022-09-12T20:41:02.014Z,72.71
2022-09-12T20:43:28.693Z,72.79
2022-09-12T20:45:55.293Z,73.03
2022-09-12T20:48:21.989Z,72.71
2022-09-12T20:50:48.316Z,73.07
2022-09-12T20:53:14.864Z,72.94
2022-09-12T20:55:49.335Z,72.56
2022-09-12T20:58:15.827Z,73.18
2022-09-12T21:00:42.341Z,73.25
2022-09-12T21:03:08.916Z,72.74
2022-09-12T21:05:35.324Z,72.49
2022-09-12T21:08:02.015Z,72.81
2022-09-12T21:10:29.338Z,73.31
2022-09-12T21:12:56.028Z,73.12
2022-09-12T21:15:22.476Z,73.22
2022-09-12T21:17:48.980Z,72.81
2022-09-12T21:20:15.529Z,73.62
2022-09-12T21:22:41.877Z,73.66
2022-09-12T21:25:08.469Z,73.62
2022-09-12T21:27:34.897Z,73.33
2022-09-12T21:30:03.632Z,72.93
2022-09-12T21:32:35.578Z,73.02
2022-09-12T21:35:05.952Z,73.37
2022-09-12T21:37:32.845Z,73.03
2022-09-12T21:39:59.369Z,73.80
2022-09-12T21:42:26.094Z,73.90
2022-09-12T21:44:52.804Z,74.46
2022-09-12T21:47:19.329Z,73.67
2022-09-12T21:49:45.801Z,74.10
2022-09-12T21:52:15.252Z,74.07
2022-09-12T21:54:41.751Z,74.21
2022-09-12T21:57:08.137Z,74.89
2022-09-12T21:59:34.544Z,74.82
2022-09-12T22:02:00.919Z,74.56
2022-09-12T22:04:27.215Z,74.64
2022-09-12T22:06:53.744Z,74.05
2022-09-12T22:09:20.115Z,74.31
2022-09-12T22:11:47.025Z,73.73
2022-09-12T22:14:13.708Z,73.64
2022-09-12T22:16:40.425Z,74.47
2022-09-12T22:19:07.022Z,74.35
2022-09-12T22:21:33.370Z,74.54
2022-09-12T22:24:18.754Z,75.14
2022-09-12T22:26:46.293Z,75.43
2022-09-12T22:29:16.133Z,75.24
2022-09-12T22:31:43.087Z,74.69
2022-09-12T22:34:09.952Z,74.95
2022-09-12T22:36:38.959Z,74.80
2022-09-12T22:39:06.045Z,75.14
2022-09-12T22:41:32.413Z,74.62
2022-09-12T22:43:58.815Z,74.53
2022-09-12T22:46:25.453Z,74.92
2022-09-12T22:48:52.364Z,74.60
2022-09-12T22:51:19.019Z,75.25
2022-09-12T22:53:45.366Z,74.85
2022-09-12T22:56:11.768Z,75.00
2022-09-12T22:58:38.611Z,75.36
2022-09-12T23:01:06.458Z,75.72
2022-09-12T23:03:33.398Z,75.61
2022-09-12T23:05:59.857Z,75.93
2022-09-12T23:08:29.625Z,76.16
2022-09-12T23:11:04.208Z,77.14
2022-09-12T23:13:31.155Z,77.71
2022-09-12T23:16:02.114Z,77.07
2022-09-12T23:18:29.212Z,76.87
2022-09-12T23:21:00.440Z,76.13
2022-09-12T23:23:27.386Z,75.82
2022-09-12T23:26:07.106Z,75.22
2022-09-12T23:28:35.630Z,75.11
2022-09-12T23:31:02.883Z,75.34
2022-09-12T23:33:30.742Z,75.86
2022-09-12T23:36:06.383Z,76.22
2022-09-12T23:38:34.792Z,76.48
2022-09-12T23:41:03.375Z,76.98
2022-09-12T23:43:30.640Z,77.20
2022-09-12T23:45:58.394Z,76.62
2022-09-12T23:48:25.135Z,76.82
2022-09-12T23:50:52.184Z,75.76
2022-09-12T23:53:19.504Z,76.33
2022-09-12T23:55:46.051Z,75.90
2022-09-12T23:58:13.337Z,76.62
